Wrangler — WDD6285 — position and weather

sailwx.info

Track history (hours):
 
Tides and Currents Weather Stations Pressure Air Temp Water Temp Dewpoint Dewpoint Depression Visibility Wind Speed Wind Dir Waves Ship Positions

Wrangler

Owner: Wrangler Inc., Warreton, OR. More information available from US FCC via Universal Licensing System and Coast Guard Vessel Documentation Center.

Last reported at 2018-Apr-23 03:25 UTC. Time now 2018-Apr-23 03:54 UTC.
Position N 47°04' W 124°43'.

Length 22 m.

Type: Ship. MMSI: 367170860.

Date/timePositionNaut miles runAvg speedWind from/ knotsBaromVisibWave heightAir tempDewpointWater temp
2018-Apr-23 03:25N 47°04' W 124°43'2 1.8
2018-Apr-23 02:14N 47°06' W 124°43'12 1.6
2018-Apr-22 18:33N 46°55' W 124°37'0 7.4
2018-Apr-22 18:30N 46°54' W 124°37'3 6.9
2018-Apr-22 18:00N 46°51' W 124°35'4 6.9
2018-Apr-22 17:29N 46°48' W 124°32'6 6.9
2018-Apr-22 16:39N 46°43' W 124°29'1 6.9
2018-Apr-22 16:31N 46°42' W 124°29'3 7.0
2018-Apr-22 16:01N 46°38' W 124°27'3 6.8
2018-Apr-22 15:30N 46°35' W 124°25'5 6.3
2018-Apr-22 14:45N 46°31' W 124°22'1 5.7
2018-Apr-22 14:30N 46°30' W 124°21'3 5.9
2018-Apr-22 14:00N 46°27' W 124°19'3 6.0
2018-Apr-22 13:30N 46°24' W 124°18'3 5.9
2018-Apr-22 13:00N 46°22' W 124°16'3 5.8
2018-Apr-22 12:30N 46°19' W 124°15'3 5.6
2018-Apr-22 12:00N 46°16' W 124°13'3 5.6
2018-Apr-22 11:30N 46°14' W 124°12'3 5.8
2018-Apr-22 11:00N 46°14' W 124°08'5 6.9
2018-Apr-22 10:17N 46°15' W 124°01'2 7.1
2018-Apr-22 10:01N 46°14' W 123°59'4 7.4
2018-Apr-22 09:30N 46°11' W 123°55'1 2.2
2018-Apr-22 09:01N 46°10' W 123°55'0 0.0
2018-Apr-22 08:21N 46°10' W 123°55'0 0.0
2018-Apr-22 08:00N 46°10' W 123°55'0 0.0
2018-Apr-22 07:17N 46°10' W 123°55'0 0.0
2018-Apr-22 06:48N 46°10' W 123°55'0 0.0
2018-Apr-22 06:22N 46°10' W 123°55'0 0.0
2018-Apr-22 06:01N 46°10' W 123°55'0 0.0
2018-Apr-22 05:13N 46°10' W 123°55'0 0.0
2018-Apr-22 05:01N 46°10' W 123°55'0 0.0
2018-Apr-22 04:28N 46°10' W 123°55'0 0.0
2018-Apr-22 04:01N 46°10' W 123°55'0 0.0
2018-Apr-22 03:29N 46°10' W 123°55'0 0.0
2018-Apr-22 03:01N 46°10' W 123°55'0 0.0
2018-Apr-22 02:31N 46°10' W 123°55'0 0.0
2018-Apr-22 02:00N 46°10' W 123°55'0 0.0
2018-Apr-22 01:31N 46°10' W 123°55'0 0.0
2018-Apr-22 01:00N 46°10' W 123°55'0 0.0
2018-Apr-22 00:30N 46°10' W 123°55'0 0.0
2018-Apr-21 23:54N 46°10' W 123°55'0 0.0
2018-Apr-21 23:31N 46°10' W 123°55'0 0.0
2018-Apr-21 23:00N 46°10' W 123°55'0 0.0
2018-Apr-21 22:31N 46°10' W 123°55'0 0.0
2018-Apr-21 22:00N 46°10' W 123°55'0 0.0
2018-Apr-21 21:31N 46°10' W 123°55'0 0.0
2018-Apr-21 21:01N 46°10' W 123°55'0 0.0
2018-Apr-21 20:31N 46°10' W 123°55'0 0.0
2018-Apr-21 20:00N 46°10' W 123°55'0 0.0
2018-Apr-21 19:30N 46°10' W 123°55'0 0.0
2018-Apr-21 18:56N 46°10' W 123°55'0 0.0
2018-Apr-21 18:30N 46°10' W 123°55'0 0.0
2018-Apr-21 17:44N 46°10' W 123°55'0 0.0
2018-Apr-21 17:31N 46°10' W 123°55'1 2.9
2018-Apr-21 17:00N 46°12' W 123°55'3 5.4
2018-Apr-21 16:31N 46°11' W 123°51'0 0.0
2018-Apr-21 16:00N 46°11' W 123°51'0 0.0
2018-Apr-21 15:21N 46°11' W 123°51'0 0.0
2018-Apr-21 15:01N 46°11' W 123°51'0 0.0
2018-Apr-21 14:30N 46°11' W 123°51'0 0.0
2018-Apr-21 14:00N 46°11' W 123°51'0 0.0
2018-Apr-21 13:31N 46°11' W 123°51'0 0.0
2018-Apr-21 13:01N 46°11' W 123°51'0 0.0
2018-Apr-21 12:28N 46°11' W 123°51'0 0.0
2018-Apr-21 12:01N 46°11' W 123°51'0 0.7
2018-Apr-21 11:31N 46°11' W 123°52'2 4.6
2018-Apr-21 11:00N 46°12' W 123°55'4 8.2
2018-Apr-21 10:31N 46°14' W 123°59'4 7.7
2018-Apr-21 10:00N 46°15' W 124°05'3 6.3
2018-Apr-21 09:31N 46°14' W 124°09'2 4.1
2018-Apr-21 09:00N 46°15' W 124°11'3 6.0
2018-Apr-21 08:30N 46°18' W 124°13'3 5.7
2018-Apr-21 08:00N 46°20' W 124°15'3 5.8
2018-Apr-21 07:31N 46°23' W 124°17'3 5.3
2018-Apr-21 07:00N 46°25' W 124°18'2 5.0
2018-Apr-21 06:30N 46°28' W 124°20'3 5.2
2018-Apr-21 06:00N 46°30' W 124°21'3 5.2
2018-Apr-21 05:31N 46°32' W 124°23'3 5.6
2018-Apr-21 05:00N 46°35' W 124°24'3 5.8
2018-Apr-21 04:30N 46°38' W 124°26'3 5.9
2018-Apr-21 04:00N 46°40' W 124°28'3 6.0
2018-Apr-21 03:31N 46°43' W 124°29'3 5.9
2018-Apr-21 03:00N 46°46' W 124°31'4 6.4
2018-Apr-21 02:26N 46°49' W 124°34'3 6.8
2018-Apr-21 02:00N 46°52' W 124°35'5 7.1
2018-Apr-21 01:17N 46°56' W 124°38'2 7.0
2018-Apr-21 01:00N 46°58' W 124°40'4 0.7
2018-Apr-20 19:41N 47°01' W 124°43'1 4.0
2018-Apr-20 19:30N 47°01' W 124°44'3 4.7
2018-Apr-20 18:57N 47°02' W 124°48'2 4.1
2018-Apr-20 18:30N 47°02' W 124°51'6 1.4
2018-Apr-20 14:03N 47°09' W 124°51'0 4.0
2018-Apr-20 13:57N 47°09' W 124°51'0 0.1
2018-Apr-20 10:58N 47°09' W 124°51'1 0.4
2018-Apr-20 09:31N 47°08' W 124°51'0 0.4
2018-Apr-20 09:30N 47°08' W 124°51'0 0.4
2018-Apr-20 08:57N 47°08' W 124°51'5 1.0
2018-Apr-20 03:51N 47°03' W 124°50'4 0.3
2018-Apr-19 14:29N 46°60' W 124°47'1 1.6
2018-Apr-19 14:01N 46°59' W 124°48'1 2.2
2018-Apr-19 13:30N 47°00' W 124°49'2 4.0
2018-Apr-19 13:01N 46°58' W 124°50'2 3.5
2018-Apr-19 12:30N 46°57' W 124°51'0 0.6
2018-Apr-19 12:00N 46°57' W 124°51'0 0.7
2018-Apr-19 11:21N 46°57' W 124°50'0 0.8
2018-Apr-19 11:00N 46°58' W 124°50'0 0.8
2018-Apr-19 10:31N 46°58' W 124°50'0 0.9
2018-Apr-19 10:01N 46°58' W 124°50'0 0.9
2018-Apr-19 09:30N 46°59' W 124°49'0 0.8
2018-Apr-19 09:00N 46°59' W 124°49'0 0.9
2018-Apr-19 08:30N 46°59' W 124°48'1 1.1
2018-Apr-19 08:00N 46°60' W 124°48'1 1.2
2018-Apr-19 07:30N 47°00' W 124°47'1 1.2
2018-Apr-19 07:00N 47°01' W 124°47'1 1.1
2018-Apr-19 06:17N 47°02' W 124°47'0 1.3
2018-Apr-19 06:00N 47°02' W 124°46'1 1.1
2018-Apr-19 05:20N 47°03' W 124°46'2 5.6
2018-Apr-19 04:54N 47°01' W 124°48'2 6.0
2018-Apr-19 04:30N 46°59' W 124°50'0 0.8
2018-Apr-19 04:01N 46°58' W 124°50'3 3.5
2018-Apr-19 03:06N 47°02' W 124°50'2 0.7
2018-Apr-19 00:36N 47°00' W 124°49'0 3.7
2018-Apr-19 00:31N 46°60' W 124°49'0 0.8
2018-Apr-18 23:59N 46°59' W 124°49'1 1.2
2018-Apr-18 23:29N 46°59' W 124°48'1 1.6
2018-Apr-18 22:47N 46°58' W 124°47'1 1.7
2018-Apr-18 22:13N 46°58' W 124°46'2 2.2
2018-Apr-18 21:30N 46°57' W 124°44'1 1.1
2018-Apr-18 21:01N 46°56' W 124°44'1 1.6
2018-Apr-18 20:10N 46°55' W 124°43'0 1.6
2018-Apr-18 19:57N 46°55' W 124°43'1 1.7
2018-Apr-18 19:31N 46°54' W 124°43'1 2.5
2018-Apr-18 19:00N 46°53' W 124°43'1 2.1
2018-Apr-18 18:29N 46°52' W 124°43'2 2.0
2018-Apr-18 17:39N 46°50' W 124°43'0 1.9
2018-Apr-18 17:30N 46°50' W 124°43'1 1.8
2018-Apr-18 17:00N 46°49' W 124°44'1 1.8
2018-Apr-18 16:31N 46°49' W 124°45'1 2.2
2018-Apr-18 16:00N 46°48' W 124°47'1 1.2
2018-Apr-18 15:30N 46°48' W 124°47'1 2.2
2018-Apr-18 15:00N 46°49' W 124°46'1 2.5
2018-Apr-18 14:30N 46°50' W 124°45'0 0.7
2018-Apr-18 14:00N 46°50' W 124°45'0 0.4
2018-Apr-18 13:27N 46°50' W 124°45'3 6.4
2018-Apr-18 12:59N 46°47' W 124°43'5 7.6
2018-Apr-18 12:19N 46°43' W 124°39'3 7.8
2018-Apr-18 11:58N 46°41' W 124°37'4 7.2
2018-Apr-18 11:26N 46°37' W 124°34'4 7.6
2018-Apr-18 10:57N 46°34' W 124°31'3 7.7
2018-Apr-18 10:31N 46°31' W 124°28'4 8.2
2018-Apr-18 10:01N 46°28' W 124°25'4 8.6
2018-Apr-18 09:30N 46°24' W 124°22'5 8.9
2018-Apr-18 08:56N 46°20' W 124°18'4 8.5
2018-Apr-18 08:30N 46°17' W 124°15'4 8.1
2018-Apr-18 08:01N 46°13' W 124°12'4 7.9
2018-Apr-18 07:31N 46°15' W 124°07'4 6.6
2018-Apr-18 06:52N 46°15' W 124°01'3 7.2
2018-Apr-18 06:31N 46°13' W 123°58'4 7.0
2018-Apr-18 06:00N 46°11' W 123°54'1 2.2
2018-Apr-18 05:30N 46°10' W 123°55'0 0.0
2018-Apr-18 05:01N 46°10' W 123°55'0 0.0
2018-Apr-18 04:31N 46°10' W 123°55'0 0.0
2018-Apr-18 04:00N 46°10' W 123°55'0 0.0
2018-Apr-18 03:31N 46°10' W 123°55'0 0.0
2018-Apr-18 03:01N 46°10' W 123°55'0 0.0
2018-Apr-18 02:30N 46°10' W 123°55'0 0.0
2018-Apr-18 02:01N 46°10' W 123°55'0 0.0
2018-Apr-18 01:30N 46°10' W 123°55'0 0.0
2018-Apr-18 01:00N 46°10' W 123°55'0 0.0
2018-Apr-18 00:31N 46°10' W 123°55'0 0.0
2018-Apr-18 00:00N 46°10' W 123°55'0 0.0
2018-Apr-17 23:30N 46°10' W 123°55'0 0.0
2018-Apr-17 23:00N 46°10' W 123°55'0 0.0
2018-Apr-17 22:30N 46°10' W 123°55'0 0.0
2018-Apr-17 22:00N 46°10' W 123°55'0 0.0
2018-Apr-17 21:30N 46°10' W 123°55'0 0.0
2018-Apr-17 21:01N 46°10' W 123°55'0 0.0
2018-Apr-17 20:30N 46°10' W 123°55'0 0.0
2018-Apr-17 20:00N 46°10' W 123°55'0 0.0
2018-Apr-17 19:10N 46°10' W 123°55'0 0.0
2018-Apr-17 19:00N 46°10' W 123°55'0 0.0
2018-Apr-17 18:28N 46°10' W 123°55'0 0.0
2018-Apr-17 18:01N 46°10' W 123°55'0 0.0
2018-Apr-17 17:29N 46°10' W 123°55'0 0.0
2018-Apr-17 17:00N 46°10' W 123°55'0 0.0
2018-Apr-17 16:15N 46°10' W 123°55'0 0.0
2018-Apr-17 16:01N 46°10' W 123°55'0 0.0
2018-Apr-17 15:30N 46°10' W 123°55'0 0.0
2018-Apr-17 15:01N 46°10' W 123°55'0 0.0
2018-Apr-17 14:30N 46°10' W 123°55'0 0.0
2018-Apr-17 14:01N 46°10' W 123°55'0 0.0
2018-Apr-17 13:31N 46°10' W 123°55'0 0.0
2018-Apr-17 12:53N 46°10' W 123°55'0 0.0
2018-Apr-17 12:30N 46°10' W 123°55'0 0.0
2018-Apr-17 12:00N 46°10' W 123°55'0 0.0
2018-Apr-17 11:30N 46°10' W 123°55'0 0.0
2018-Apr-17 10:52N 46°10' W 123°55'0 0.0
2018-Apr-17 10:30N 46°10' W 123°55'0 0.0
2018-Apr-17 10:00N 46°10' W 123°55'0 0.0
2018-Apr-17 09:30N 46°10' W 123°55'0 0.0
2018-Apr-17 08:51N 46°10' W 123°55'0 0.0
2018-Apr-17 08:30N 46°10' W 123°55'0 0.0
2018-Apr-17 07:58N 46°10' W 123°55'0 0.0
2018-Apr-17 07:30N 46°10' W 123°55'0 0.0
2018-Apr-17 06:50N 46°10' W 123°55'0 0.0
2018-Apr-17 06:30N 46°10' W 123°55'0 0.0
2018-Apr-17 05:21N 46°10' W 123°55'0 0.0
2018-Apr-17 05:00N 46°10' W 123°55'0 0.0
2018-Apr-17 04:30N 46°10' W 123°55'0 0.0
2018-Apr-17 04:00N 46°10' W 123°55'0 0.0
2018-Apr-17 03:31N 46°10' W 123°55'0 0.0
2018-Apr-17 03:00N 46°10' W 123°55'0 0.0
2018-Apr-17 02:30N 46°10' W 123°55'0 0.0
2018-Apr-17 02:00N 46°10' W 123°55'0 0.0
2018-Apr-17 01:30N 46°10' W 123°55'0 0.0
2018-Apr-17 01:00N 46°10' W 123°55'0 0.0
2018-Apr-17 00:24N 46°10' W 123°55'0 0.0
2018-Apr-17 00:00N 46°10' W 123°55'0 0.0
2018-Apr-16 23:24N 46°10' W 123°55'0 0.0
2018-Apr-16 23:00N 46°10' W 123°55'0 0.0
2018-Apr-16 22:31N 46°10' W 123°55'0 0.0
2018-Apr-16 22:00N 46°10' W 123°55'0 0.0
2018-Apr-16 21:30N 46°10' W 123°55'0 0.0
2018-Apr-16 21:01N 46°10' W 123°55'0 0.0
2018-Apr-16 20:21N 46°10' W 123°55'0 0.0
2018-Apr-16 20:00N 46°10' W 123°55'0 0.0
2018-Apr-16 19:28N 46°10' W 123°55'0 0.0
2018-Apr-16 19:00N 46°10' W 123°55'0 0.0
2018-Apr-16 18:30N 46°10' W 123°55'0 0.0
2018-Apr-16 18:00N 46°10' W 123°55'0 0.0
2018-Apr-16 17:30N 46°10' W 123°55'0 0.0
2018-Apr-16 17:00N 46°10' W 123°55'0 0.0
2018-Apr-16 16:22N 46°10' W 123°55'0 0.0
2018-Apr-16 15:54N 46°10' W 123°55'0 0.0
2018-Apr-16 15:30N 46°10' W 123°55'0 0.0
2018-Apr-16 15:01N 46°10' W 123°55'0 0.0
2018-Apr-16 14:30N 46°10' W 123°55'0 0.0
2018-Apr-16 14:01N 46°10' W 123°55'0 0.0
2018-Apr-16 13:30N 46°10' W 123°55'0 0.0
2018-Apr-16 13:00N 46°10' W 123°55'0 0.0
2018-Apr-16 12:30N 46°10' W 123°55'0 0.0
2018-Apr-16 12:00N 46°10' W 123°55'0 0.0
2018-Apr-16 11:31N 46°10' W 123°55'0 0.0
2018-Apr-16 11:00N 46°10' W 123°55'0 0.0
2018-Apr-16 10:30N 46°10' W 123°55'0 0.0
2018-Apr-16 10:01N 46°10' W 123°55'0 0.0
2018-Apr-16 09:31N 46°10' W 123°55'0 0.0
2018-Apr-16 09:00N 46°10' W 123°55'0 0.0
2018-Apr-16 08:30N 46°10' W 123°55'0 0.0
2018-Apr-16 08:00N 46°10' W 123°55'0 0.0
2018-Apr-16 07:31N 46°10' W 123°55'0 0.0
2018-Apr-16 07:01N 46°10' W 123°55'0 0.0
2018-Apr-16 06:30N 46°10' W 123°55'0 0.0
2018-Apr-16 06:00N 46°10' W 123°55'0 0.0
2018-Apr-16 05:30N 46°10' W 123°55'0 0.0
2018-Apr-16 05:01N 46°10' W 123°55'0 0.0
2018-Apr-16 04:30N 46°10' W 123°55'0 0.0
2018-Apr-16 04:01N 46°10' W 123°55'0 0.0
2018-Apr-16 03:30N 46°10' W 123°55'0 0.0
2018-Apr-16 03:00N 46°10' W 123°55'0 0.0
2018-Apr-16 02:30N 46°10' W 123°55'0 0.0
2018-Apr-16 02:00N 46°10' W 123°55'0 0.0
2018-Apr-16 01:31N 46°10' W 123°55'2 3.0
2018-Apr-16 01:00N 46°11' W 123°53'1 2.8
2018-Apr-16 00:31N 46°11' W 123°51'0 0.0
2018-Apr-16 00:00N 46°11' W 123°51'0 0.0
2018-Apr-15 23:30N 46°11' W 123°51'0 0.0
2018-Apr-15 23:01N 46°11' W 123°51'0 0.0
2018-Apr-15 22:31N 46°11' W 123°51'0 0.0
2018-Apr-15 22:00N 46°11' W 123°51'1 1.0
2018-Apr-15 21:31N 46°11' W 123°52'2 4.4
2018-Apr-15 21:00N 46°10' W 123°55'0 0.0
2018-Apr-15 20:30N 46°10' W 123°55'0 0.0
2018-Apr-15 20:01N 46°10' W 123°55'0 0.0
2018-Apr-15 19:30N 46°10' W 123°55'0 0.0
2018-Apr-15 19:01N 46°10' W 123°55'0 0.0
2018-Apr-15 18:31N 46°10' W 123°55'0 0.0
2018-Apr-15 18:01N 46°10' W 123°55'0 0.0
2018-Apr-15 17:30N 46°10' W 123°55'0 0.0
2018-Apr-15 17:01N 46°10' W 123°55'0 0.0
2018-Apr-15 16:30N 46°10' W 123°55'0 0.0
2018-Apr-15 16:01N 46°10' W 123°55'0 0.0
2018-Apr-15 15:30N 46°10' W 123°55'0 0.0
2018-Apr-15 15:01N 46°10' W 123°55'0 0.0
2018-Apr-15 14:30N 46°10' W 123°55'0 0.0
2018-Apr-15 14:00N 46°10' W 123°55'0 0.0
2018-Apr-15 13:30N 46°10' W 123°55'0 0.0
2018-Apr-15 13:01N 46°10' W 123°55'0 0.0
2018-Apr-15 12:30N 46°10' W 123°55'0 0.0
2018-Apr-15 12:01N 46°10' W 123°55'0 0.0
2018-Apr-15 11:30N 46°10' W 123°55'0 0.0
2018-Apr-15 11:01N 46°10' W 123°55'0 0.0
2018-Apr-15 10:31N 46°10' W 123°55'0 0.0
2018-Apr-15 09:12N 46°10' W 123°55'0 0.0
2018-Apr-15 09:01N 46°10' W 123°55'0 0.0
2018-Apr-15 08:31N 46°10' W 123°55'0 0.0
2018-Apr-15 08:00N 46°10' W 123°55'0 0.0
2018-Apr-15 07:31N 46°10' W 123°55'0 0.0
2018-Apr-15 07:01N 46°10' W 123°55'0 0.0
2018-Apr-15 06:31N 46°10' W 123°55'0 0.0
2018-Apr-15 06:01N 46°10' W 123°55'0 0.0
2018-Apr-15 05:30N 46°10' W 123°55'0 0.0
2018-Apr-15 05:00N 46°10' W 123°55'0 0.0
2018-Apr-15 04:30N 46°10' W 123°55'0 0.0
2018-Apr-15 04:00N 46°10' W 123°55'0 0.0
2018-Apr-15 03:31N 46°10' W 123°55'0 0.0
2018-Apr-15 03:01N 46°10' W 123°55'0 0.0
2018-Apr-15 02:31N 46°10' W 123°55'0 0.0
2018-Apr-15 02:00N 46°10' W 123°55'0 0.0
2018-Apr-15 01:31N 46°10' W 123°55'0 0.0
2018-Apr-15 01:01N 46°10' W 123°55'0 0.0
2018-Apr-15 00:30N 46°10' W 123°55'0 0.0
2018-Apr-15 00:01N 46°10' W 123°55'0 0.0
2018-Apr-14 23:30N 46°10' W 123°55'0 0.0
2018-Apr-14 23:01N 46°10' W 123°55'0 0.0
2018-Apr-14 22:30N 46°10' W 123°55'0 0.0
2018-Apr-14 22:01N 46°10' W 123°55'0 0.0
2018-Apr-14 21:30N 46°10' W 123°55'0 0.0
2018-Apr-14 21:00N 46°10' W 123°55'0 0.0
2018-Apr-14 20:30N 46°10' W 123°55'0 0.0
2018-Apr-14 20:00N 46°10' W 123°55'0 0.0
2018-Apr-14 19:30N 46°10' W 123°55'0 0.0
2018-Apr-14 19:01N 46°10' W 123°55'0 0.0
2018-Apr-14 18:30N 46°10' W 123°55'0 0.0
2018-Apr-14 18:00N 46°10' W 123°55'0 0.0
2018-Apr-14 17:30N 46°10' W 123°55'0 0.0
2018-Apr-14 17:00N 46°10' W 123°55'0 0.0
2018-Apr-14 16:30N 46°10' W 123°55'0 0.0
2018-Apr-14 16:00N 46°10' W 123°55'0 0.0
2018-Apr-14 15:31N 46°10' W 123°55'0 0.0
2018-Apr-14 15:00N 46°10' W 123°55'0 0.0
2018-Apr-14 14:30N 46°10' W 123°55'0 0.0
2018-Apr-14 14:00N 46°10' W 123°55'0 0.0
2018-Apr-14 13:31N 46°10' W 123°55'0 0.0
2018-Apr-14 12:59N 46°10' W 123°55'0 0.0
2018-Apr-14 12:31N 46°10' W 123°55'0 0.0
2018-Apr-14 12:00N 46°10' W 123°55'0 0.0
2018-Apr-14 11:30N 46°10' W 123°55'0 0.0
2018-Apr-14 11:01N 46°10' W 123°55'0 0.0
2018-Apr-14 10:05N 46°10' W 123°55'0 0.0
2018-Apr-14 10:00N 46°10' W 123°55'0 0.0
2018-Apr-14 09:30N 46°10' W 123°55'0 0.0
2018-Apr-14 08:55N 46°10' W 123°55'0 0.0
2018-Apr-14 08:30N 46°10' W 123°55'0 0.0
2018-Apr-14 08:00N 46°10' W 123°55'0 0.0
2018-Apr-14 07:30N 46°10' W 123°55'0 0.0
2018-Apr-14 07:01N 46°10' W 123°55'0 0.0
2018-Apr-14 06:30N 46°10' W 123°55'0 0.0
2018-Apr-14 06:00N 46°10' W 123°55'0 0.0
2018-Apr-14 05:30N 46°10' W 123°55'0 0.0
2018-Apr-14 04:56N 46°10' W 123°55'0 0.0
2018-Apr-14 04:24N 46°10' W 123°55'0 0.0
2018-Apr-14 04:00N 46°10' W 123°55'0 0.0
2018-Apr-14 03:31N 46°10' W 123°55'0 0.0
2018-Apr-14 02:56N 46°10' W 123°55'0 0.0
2018-Apr-14 02:30N 46°10' W 123°55'0 0.0
2018-Apr-14 02:01N 46°10' W 123°55'0 0.0
2018-Apr-14 01:30N 46°10' W 123°55'0 0.0
2018-Apr-14 00:57N 46°10' W 123°55'0 0.0
2018-Apr-14 00:31N 46°10' W 123°55'0 0.0
2018-Apr-14 00:00N 46°10' W 123°55'0 0.0
2018-Apr-13 23:27N 46°10' W 123°55'0 0.0
2018-Apr-13 22:57N 46°10' W 123°55'0 0.0
2018-Apr-13 22:30N 46°10' W 123°55'0 0.0
2018-Apr-13 22:00N 46°10' W 123°55'0 0.0
2018-Apr-13 21:30N 46°10' W 123°55'0 0.1
2018-Apr-13 21:00N 46°10' W 123°55'0 0.1
2018-Apr-13 20:30N 46°10' W 123°55'0 0.0
2018-Apr-13 20:01N 46°10' W 123°55'0 0.0
2018-Apr-13 19:31N 46°10' W 123°55'0 0.0
2018-Apr-13 19:01N 46°10' W 123°55'0 0.0
2018-Apr-13 18:16N 46°10' W 123°55'0 0.0
2018-Apr-13 18:00N 46°10' W 123°55'0 0.1
2018-Apr-13 17:30N 46°10' W 123°55'0 0.0
2018-Apr-13 17:00N 46°10' W 123°55'0 0.0
2018-Apr-13 16:30N 46°10' W 123°55'0 0.0
2018-Apr-13 16:00N 46°10' W 123°55'0 0.0
2018-Apr-13 15:30N 46°10' W 123°55'0 0.0
2018-Apr-13 15:01N 46°10' W 123°55'0 0.0
2018-Apr-13 14:31N 46°10' W 123°55'0 0.0
2018-Apr-13 14:00N 46°10' W 123°55'0 0.0
2018-Apr-13 13:31N 46°10' W 123°55'0 0.0
2018-Apr-13 13:00N 46°10' W 123°55'0 0.0
2018-Apr-13 12:31N 46°10' W 123°55'0 0.0
2018-Apr-13 12:00N 46°10' W 123°55'0 0.0
2018-Apr-13 11:30N 46°10' W 123°55'0 0.0
2018-Apr-13 11:01N 46°10' W 123°55'0 0.0
2018-Apr-13 09:59N 46°10' W 123°55'0 0.0
2018-Apr-13 09:29N 46°10' W 123°55'0 0.0
2018-Apr-13 09:01N 46°10' W 123°55'0 0.0
2018-Apr-13 08:31N 46°10' W 123°55'0 0.0
2018-Apr-13 08:00N 46°10' W 123°55'0 0.0
2018-Apr-13 07:31N 46°10' W 123°55'0 0.0
2018-Apr-13 07:00N 46°10' W 123°55'0 0.0
2018-Apr-13 06:30N 46°10' W 123°55'0 0.0
2018-Apr-13 06:01N 46°10' W 123°55'0 0.0
2018-Apr-13 05:31N 46°10' W 123°55'0 0.0
2018-Apr-13 05:01N 46°10' W 123°55'0 0.0
2018-Apr-13 04:31N 46°10' W 123°55'0 0.0
2018-Apr-13 03:49N 46°10' W 123°55'  
Track history (hours):
 
Tides and Currents Weather Stations Pressure Air Temp Water Temp Dewpoint Dewpoint Depression Visibility Wind Speed Wind Dir Waves Ship Positions

Wrangler

Owner: Wrangler Inc., Warreton, OR. More information available from US FCC via Universal Licensing System and Coast Guard Vessel Documentation Center.

Last reported at 2018-Apr-23 03:25 UTC. Time now 2018-Apr-23 03:54 UTC.
Position N 47°04' W 124°43'.

Length 22 m.

Type: Ship. MMSI: 367170860.

Date/timePositionNaut miles runAvg speedWind from/ knotsBaromVisibWave heightAir tempDewpointWater temp
2018-Apr-23 03:25N 47°04' W 124°43'2 1.8
2018-Apr-23 02:14N 47°06' W 124°43'12 1.6
2018-Apr-22 18:33N 46°55' W 124°37'0 7.4
2018-Apr-22 18:30N 46°54' W 124°37'3 6.9
2018-Apr-22 18:00N 46°51' W 124°35'4 6.9
2018-Apr-22 17:29N 46°48' W 124°32'6 6.9
2018-Apr-22 16:39N 46°43' W 124°29'1 6.9
2018-Apr-22 16:31N 46°42' W 124°29'3 7.0
2018-Apr-22 16:01N 46°38' W 124°27'3 6.8
2018-Apr-22 15:30N 46°35' W 124°25'5 6.3
2018-Apr-22 14:45N 46°31' W 124°22'1 5.7
2018-Apr-22 14:30N 46°30' W 124°21'3 5.9
2018-Apr-22 14:00N 46°27' W 124°19'3 6.0
2018-Apr-22 13:30N 46°24' W 124°18'3 5.9
2018-Apr-22 13:00N 46°22' W 124°16'3 5.8
2018-Apr-22 12:30N 46°19' W 124°15'3 5.6
2018-Apr-22 12:00N 46°16' W 124°13'3 5.6
2018-Apr-22 11:30N 46°14' W 124°12'3 5.8
2018-Apr-22 11:00N 46°14' W 124°08'5 6.9
2018-Apr-22 10:17N 46°15' W 124°01'2 7.1
2018-Apr-22 10:01N 46°14' W 123°59'4 7.4
2018-Apr-22 09:30N 46°11' W 123°55'1 2.2
2018-Apr-22 09:01N 46°10' W 123°55'0 0.0
2018-Apr-22 08:21N 46°10' W 123°55'0 0.0
2018-Apr-22 08:00N 46°10' W 123°55'0 0.0
2018-Apr-22 07:17N 46°10' W 123°55'0 0.0
2018-Apr-22 06:48N 46°10' W 123°55'0 0.0
2018-Apr-22 06:22N 46°10' W 123°55'0 0.0
2018-Apr-22 06:01N 46°10' W 123°55'0 0.0
2018-Apr-22 05:13N 46°10' W 123°55'0 0.0
2018-Apr-22 05:01N 46°10' W 123°55'0 0.0
2018-Apr-22 04:28N 46°10' W 123°55'0 0.0
2018-Apr-22 04:01N 46°10' W 123°55'0 0.0
2018-Apr-22 03:29N 46°10' W 123°55'0 0.0
2018-Apr-22 03:01N 46°10' W 123°55'0 0.0
2018-Apr-22 02:31N 46°10' W 123°55'0 0.0
2018-Apr-22 02:00N 46°10' W 123°55'0 0.0
2018-Apr-22 01:31N 46°10' W 123°55'0 0.0
2018-Apr-22 01:00N 46°10' W 123°55'0 0.0
2018-Apr-22 00:30N 46°10' W 123°55'0 0.0
2018-Apr-21 23:54N 46°10' W 123°55'0 0.0
2018-Apr-21 23:31N 46°10' W 123°55'0 0.0
2018-Apr-21 23:00N 46°10' W 123°55'0 0.0
2018-Apr-21 22:31N 46°10' W 123°55'0 0.0
2018-Apr-21 22:00N 46°10' W 123°55'0 0.0
2018-Apr-21 21:31N 46°10' W 123°55'0 0.0
2018-Apr-21 21:01N 46°10' W 123°55'0 0.0
2018-Apr-21 20:31N 46°10' W 123°55'0 0.0
2018-Apr-21 20:00N 46°10' W 123°55'0 0.0
2018-Apr-21 19:30N 46°10' W 123°55'0 0.0
2018-Apr-21 18:56N 46°10' W 123°55'0 0.0
2018-Apr-21 18:30N 46°10' W 123°55'0 0.0
2018-Apr-21 17:44N 46°10' W 123°55'0 0.0
2018-Apr-21 17:31N 46°10' W 123°55'1 2.9
2018-Apr-21 17:00N 46°12' W 123°55'3 5.4
2018-Apr-21 16:31N 46°11' W 123°51'0 0.0
2018-Apr-21 16:00N 46°11' W 123°51'0 0.0
2018-Apr-21 15:21N 46°11' W 123°51'0 0.0
2018-Apr-21 15:01N 46°11' W 123°51'0 0.0
2018-Apr-21 14:30N 46°11' W 123°51'0 0.0
2018-Apr-21 14:00N 46°11' W 123°51'0 0.0
2018-Apr-21 13:31N 46°11' W 123°51'0 0.0
2018-Apr-21 13:01N 46°11' W 123°51'0 0.0
2018-Apr-21 12:28N 46°11' W 123°51'0 0.0
2018-Apr-21 12:01N 46°11' W 123°51'0 0.7
2018-Apr-21 11:31N 46°11' W 123°52'2 4.6
2018-Apr-21 11:00N 46°12' W 123°55'4 8.2
2018-Apr-21 10:31N 46°14' W 123°59'4 7.7
2018-Apr-21 10:00N 46°15' W 124°05'3 6.3
2018-Apr-21 09:31N 46°14' W 124°09'2 4.1
2018-Apr-21 09:00N 46°15' W 124°11'3 6.0
2018-Apr-21 08:30N 46°18' W 124°13'3 5.7
2018-Apr-21 08:00N 46°20' W 124°15'3 5.8
2018-Apr-21 07:31N 46°23' W 124°17'3 5.3
2018-Apr-21 07:00N 46°25' W 124°18'2 5.0
2018-Apr-21 06:30N 46°28' W 124°20'3 5.2
2018-Apr-21 06:00N 46°30' W 124°21'3 5.2
2018-Apr-21 05:31N 46°32' W 124°23'3 5.6
2018-Apr-21 05:00N 46°35' W 124°24'3 5.8
2018-Apr-21 04:30N 46°38' W 124°26'3 5.9
2018-Apr-21 04:00N 46°40' W 124°28'3 6.0
2018-Apr-21 03:31N 46°43' W 124°29'3 5.9
2018-Apr-21 03:00N 46°46' W 124°31'4 6.4
2018-Apr-21 02:26N 46°49' W 124°34'3 6.8
2018-Apr-21 02:00N 46°52' W 124°35'5 7.1
2018-Apr-21 01:17N 46°56' W 124°38'2 7.0
2018-Apr-21 01:00N 46°58' W 124°40'4 0.7
2018-Apr-20 19:41N 47°01' W 124°43'1 4.0
2018-Apr-20 19:30N 47°01' W 124°44'3 4.7
2018-Apr-20 18:57N 47°02' W 124°48'2 4.1
2018-Apr-20 18:30N 47°02' W 124°51'6 1.4
2018-Apr-20 14:03N 47°09' W 124°51'0 4.0
2018-Apr-20 13:57N 47°09' W 124°51'0 0.1
2018-Apr-20 10:58N 47°09' W 124°51'1 0.4
2018-Apr-20 09:31N 47°08' W 124°51'0 0.4
2018-Apr-20 09:30N 47°08' W 124°51'0 0.4
2018-Apr-20 08:57N 47°08' W 124°51'5 1.0
2018-Apr-20 03:51N 47°03' W 124°50'4 0.3
2018-Apr-19 14:29N 46°60' W 124°47'1 1.6
2018-Apr-19 14:01N 46°59' W 124°48'1 2.2
2018-Apr-19 13:30N 47°00' W 124°49'2 4.0
2018-Apr-19 13:01N 46°58' W 124°50'2 3.5
2018-Apr-19 12:30N 46°57' W 124°51'0 0.6
2018-Apr-19 12:00N 46°57' W 124°51'0 0.7
2018-Apr-19 11:21N 46°57' W 124°50'0 0.8
2018-Apr-19 11:00N 46°58' W 124°50'0 0.8
2018-Apr-19 10:31N 46°58' W 124°50'0 0.9
2018-Apr-19 10:01N 46°58' W 124°50'0 0.9
2018-Apr-19 09:30N 46°59' W 124°49'0 0.8
2018-Apr-19 09:00N 46°59' W 124°49'0 0.9
2018-Apr-19 08:30N 46°59' W 124°48'1 1.1
2018-Apr-19 08:00N 46°60' W 124°48'1 1.2
2018-Apr-19 07:30N 47°00' W 124°47'1 1.2
2018-Apr-19 07:00N 47°01' W 124°47'1 1.1
2018-Apr-19 06:17N 47°02' W 124°47'0 1.3
2018-Apr-19 06:00N 47°02' W 124°46'1 1.1
2018-Apr-19 05:20N 47°03' W 124°46'2 5.6
2018-Apr-19 04:54N 47°01' W 124°48'2 6.0
2018-Apr-19 04:30N 46°59' W 124°50'0 0.8
2018-Apr-19 04:01N 46°58' W 124°50'3 3.5
2018-Apr-19 03:06N 47°02' W 124°50'2 0.7
2018-Apr-19 00:36N 47°00' W 124°49'0 3.7
2018-Apr-19 00:31N 46°60' W 124°49'0 0.8
2018-Apr-18 23:59N 46°59' W 124°49'1 1.2
2018-Apr-18 23:29N 46°59' W 124°48'1 1.6
2018-Apr-18 22:47N 46°58' W 124°47'1 1.7
2018-Apr-18 22:13N 46°58' W 124°46'2 2.2
2018-Apr-18 21:30N 46°57' W 124°44'1 1.1
2018-Apr-18 21:01N 46°56' W 124°44'1 1.6
2018-Apr-18 20:10N 46°55' W 124°43'0 1.6
2018-Apr-18 19:57N 46°55' W 124°43'1 1.7
2018-Apr-18 19:31N 46°54' W 124°43'1 2.5
2018-Apr-18 19:00N 46°53' W 124°43'1 2.1
2018-Apr-18 18:29N 46°52' W 124°43'2 2.0
2018-Apr-18 17:39N 46°50' W 124°43'0 1.9
2018-Apr-18 17:30N 46°50' W 124°43'1 1.8
2018-Apr-18 17:00N 46°49' W 124°44'1 1.8
2018-Apr-18 16:31N 46°49' W 124°45'1 2.2
2018-Apr-18 16:00N 46°48' W 124°47'1 1.2
2018-Apr-18 15:30N 46°48' W 124°47'1 2.2
2018-Apr-18 15:00N 46°49' W 124°46'1 2.5
2018-Apr-18 14:30N 46°50' W 124°45'0 0.7
2018-Apr-18 14:00N 46°50' W 124°45'0 0.4
2018-Apr-18 13:27N 46°50' W 124°45'3 6.4
2018-Apr-18 12:59N 46°47' W 124°43'5 7.6
2018-Apr-18 12:19N 46°43' W 124°39'3 7.8
2018-Apr-18 11:58N 46°41' W 124°37'4 7.2
2018-Apr-18 11:26N 46°37' W 124°34'4 7.6
2018-Apr-18 10:57N 46°34' W 124°31'3 7.7
2018-Apr-18 10:31N 46°31' W 124°28'4 8.2
2018-Apr-18 10:01N 46°28' W 124°25'4 8.6
2018-Apr-18 09:30N 46°24' W 124°22'5 8.9
2018-Apr-18 08:56N 46°20' W 124°18'4 8.5
2018-Apr-18 08:30N 46°17' W 124°15'4 8.1
2018-Apr-18 08:01N 46°13' W 124°12'4 7.9
2018-Apr-18 07:31N 46°15' W 124°07'4 6.6
2018-Apr-18 06:52N 46°15' W 124°01'3 7.2
2018-Apr-18 06:31N 46°13' W 123°58'4 7.0
2018-Apr-18 06:00N 46°11' W 123°54'1 2.2
2018-Apr-18 05:30N 46°10' W 123°55'0 0.0
2018-Apr-18 05:01N 46°10' W 123°55'0 0.0
2018-Apr-18 04:31N 46°10' W 123°55'0 0.0
2018-Apr-18 04:00N 46°10' W 123°55'0 0.0
2018-Apr-18 03:31N 46°10' W 123°55'0 0.0
2018-Apr-18 03:01N 46°10' W 123°55'0 0.0
2018-Apr-18 02:30N 46°10' W 123°55'0 0.0
2018-Apr-18 02:01N 46°10' W 123°55'0 0.0
2018-Apr-18 01:30N 46°10' W 123°55'0 0.0
2018-Apr-18 01:00N 46°10' W 123°55'0 0.0
2018-Apr-18 00:31N 46°10' W 123°55'0 0.0
2018-Apr-18 00:00N 46°10' W 123°55'0 0.0
2018-Apr-17 23:30N 46°10' W 123°55'0 0.0
2018-Apr-17 23:00N 46°10' W 123°55'0 0.0
2018-Apr-17 22:30N 46°10' W 123°55'0 0.0
2018-Apr-17 22:00N 46°10' W 123°55'0 0.0
2018-Apr-17 21:30N 46°10' W 123°55'0 0.0
2018-Apr-17 21:01N 46°10' W 123°55'0 0.0
2018-Apr-17 20:30N 46°10' W 123°55'0 0.0
2018-Apr-17 20:00N 46°10' W 123°55'0 0.0
2018-Apr-17 19:10N 46°10' W 123°55'0 0.0
2018-Apr-17 19:00N 46°10' W 123°55'0 0.0
2018-Apr-17 18:28N 46°10' W 123°55'0 0.0
2018-Apr-17 18:01N 46°10' W 123°55'0 0.0
2018-Apr-17 17:29N 46°10' W 123°55'0 0.0
2018-Apr-17 17:00N 46°10' W 123°55'0 0.0
2018-Apr-17 16:15N 46°10' W 123°55'0 0.0
2018-Apr-17 16:01N 46°10' W 123°55'0 0.0
2018-Apr-17 15:30N 46°10' W 123°55'0 0.0
2018-Apr-17 15:01N 46°10' W 123°55'0 0.0
2018-Apr-17 14:30N 46°10' W 123°55'0 0.0
2018-Apr-17 14:01N 46°10' W 123°55'0 0.0
2018-Apr-17 13:31N 46°10' W 123°55'0 0.0
2018-Apr-17 12:53N 46°10' W 123°55'0 0.0
2018-Apr-17 12:30N 46°10' W 123°55'0 0.0
2018-Apr-17 12:00N 46°10' W 123°55'0 0.0
2018-Apr-17 11:30N 46°10' W 123°55'0 0.0
2018-Apr-17 10:52N 46°10' W 123°55'0 0.0
2018-Apr-17 10:30N 46°10' W 123°55'0 0.0
2018-Apr-17 10:00N 46°10' W 123°55'0 0.0
2018-Apr-17 09:30N 46°10' W 123°55'0 0.0
2018-Apr-17 08:51N 46°10' W 123°55'0 0.0
2018-Apr-17 08:30N 46°10' W 123°55'0 0.0
2018-Apr-17 07:58N 46°10' W 123°55'0 0.0
2018-Apr-17 07:30N 46°10' W 123°55'0 0.0
2018-Apr-17 06:50N 46°10' W 123°55'0 0.0
2018-Apr-17 06:30N 46°10' W 123°55'0 0.0
2018-Apr-17 05:21N 46°10' W 123°55'0 0.0
2018-Apr-17 05:00N 46°10' W 123°55'0 0.0
2018-Apr-17 04:30N 46°10' W 123°55'0 0.0
2018-Apr-17 04:00N 46°10' W 123°55'0 0.0
2018-Apr-17 03:31N 46°10' W 123°55'0 0.0
2018-Apr-17 03:00N 46°10' W 123°55'0 0.0
2018-Apr-17 02:30N 46°10' W 123°55'0 0.0
2018-Apr-17 02:00N 46°10' W 123°55'0 0.0
2018-Apr-17 01:30N 46°10' W 123°55'0 0.0
2018-Apr-17 01:00N 46°10' W 123°55'0 0.0
2018-Apr-17 00:24N 46°10' W 123°55'0 0.0
2018-Apr-17 00:00N 46°10' W 123°55'0 0.0
2018-Apr-16 23:24N 46°10' W 123°55'0 0.0
2018-Apr-16 23:00N 46°10' W 123°55'0 0.0
2018-Apr-16 22:31N 46°10' W 123°55'0 0.0
2018-Apr-16 22:00N 46°10' W 123°55'0 0.0
2018-Apr-16 21:30N 46°10' W 123°55'0 0.0
2018-Apr-16 21:01N 46°10' W 123°55'0 0.0
2018-Apr-16 20:21N 46°10' W 123°55'0 0.0
2018-Apr-16 20:00N 46°10' W 123°55'0 0.0
2018-Apr-16 19:28N 46°10' W 123°55'0 0.0
2018-Apr-16 19:00N 46°10' W 123°55'0 0.0
2018-Apr-16 18:30N 46°10' W 123°55'0 0.0
2018-Apr-16 18:00N 46°10' W 123°55'0 0.0
2018-Apr-16 17:30N 46°10' W 123°55'0 0.0
2018-Apr-16 17:00N 46°10' W 123°55'0 0.0
2018-Apr-16 16:22N 46°10' W 123°55'0 0.0
2018-Apr-16 15:54N 46°10' W 123°55'0 0.0
2018-Apr-16 15:30N 46°10' W 123°55'0 0.0
2018-Apr-16 15:01N 46°10' W 123°55'0 0.0
2018-Apr-16 14:30N 46°10' W 123°55'0 0.0
2018-Apr-16 14:01N 46°10' W 123°55'0 0.0
2018-Apr-16 13:30N 46°10' W 123°55'0 0.0
2018-Apr-16 13:00N 46°10' W 123°55'0 0.0
2018-Apr-16 12:30N 46°10' W 123°55'0 0.0
2018-Apr-16 12:00N 46°10' W 123°55'0 0.0
2018-Apr-16 11:31N 46°10' W 123°55'0 0.0
2018-Apr-16 11:00N 46°10' W 123°55'0 0.0
2018-Apr-16 10:30N 46°10' W 123°55'0 0.0
2018-Apr-16 10:01N 46°10' W 123°55'0 0.0
2018-Apr-16 09:31N 46°10' W 123°55'0 0.0
2018-Apr-16 09:00N 46°10' W 123°55'0 0.0
2018-Apr-16 08:30N 46°10' W 123°55'0 0.0
2018-Apr-16 08:00N 46°10' W 123°55'0 0.0
2018-Apr-16 07:31N 46°10' W 123°55'0 0.0
2018-Apr-16 07:01N 46°10' W 123°55'0 0.0
2018-Apr-16 06:30N 46°10' W 123°55'0 0.0
2018-Apr-16 06:00N 46°10' W 123°55'0 0.0
2018-Apr-16 05:30N 46°10' W 123°55'0 0.0
2018-Apr-16 05:01N 46°10' W 123°55'0 0.0
2018-Apr-16 04:30N 46°10' W 123°55'0 0.0
2018-Apr-16 04:01N 46°10' W 123°55'0 0.0
2018-Apr-16 03:30N 46°10' W 123°55'0 0.0
2018-Apr-16 03:00N 46°10' W 123°55'0 0.0
2018-Apr-16 02:30N 46°10' W 123°55'0 0.0
2018-Apr-16 02:00N 46°10' W 123°55'0 0.0
2018-Apr-16 01:31N 46°10' W 123°55'2 3.0
2018-Apr-16 01:00N 46°11' W 123°53'1 2.8
2018-Apr-16 00:31N 46°11' W 123°51'0 0.0
2018-Apr-16 00:00N 46°11' W 123°51'0 0.0
2018-Apr-15 23:30N 46°11' W 123°51'0 0.0
2018-Apr-15 23:01N 46°11' W 123°51'0 0.0
2018-Apr-15 22:31N 46°11' W 123°51'0 0.0
2018-Apr-15 22:00N 46°11' W 123°51'1 1.0
2018-Apr-15 21:31N 46°11' W 123°52'2 4.4
2018-Apr-15 21:00N 46°10' W 123°55'0 0.0
2018-Apr-15 20:30N 46°10' W 123°55'0 0.0
2018-Apr-15 20:01N 46°10' W 123°55'0 0.0
2018-Apr-15 19:30N 46°10' W 123°55'0 0.0
2018-Apr-15 19:01N 46°10' W 123°55'0 0.0
2018-Apr-15 18:31N 46°10' W 123°55'0 0.0
2018-Apr-15 18:01N 46°10' W 123°55'0 0.0
2018-Apr-15 17:30N 46°10' W 123°55'0 0.0
2018-Apr-15 17:01N 46°10' W 123°55'0 0.0
2018-Apr-15 16:30N 46°10' W 123°55'0 0.0
2018-Apr-15 16:01N 46°10' W 123°55'0 0.0
2018-Apr-15 15:30N 46°10' W 123°55'0 0.0
2018-Apr-15 15:01N 46°10' W 123°55'0 0.0
2018-Apr-15 14:30N 46°10' W 123°55'0 0.0
2018-Apr-15 14:00N 46°10' W 123°55'0 0.0
2018-Apr-15 13:30N 46°10' W 123°55'0 0.0
2018-Apr-15 13:01N 46°10' W 123°55'0 0.0
2018-Apr-15 12:30N 46°10' W 123°55'0 0.0
2018-Apr-15 12:01N 46°10' W 123°55'0 0.0
2018-Apr-15 11:30N 46°10' W 123°55'0 0.0
2018-Apr-15 11:01N 46°10' W 123°55'0 0.0
2018-Apr-15 10:31N 46°10' W 123°55'0 0.0
2018-Apr-15 09:12N 46°10' W 123°55'0 0.0
2018-Apr-15 09:01N 46°10' W 123°55'0 0.0
2018-Apr-15 08:31N 46°10' W 123°55'0 0.0
2018-Apr-15 08:00N 46°10' W 123°55'0 0.0
2018-Apr-15 07:31N 46°10' W 123°55'0 0.0
2018-Apr-15 07:01N 46°10' W 123°55'0 0.0
2018-Apr-15 06:31N 46°10' W 123°55'0 0.0
2018-Apr-15 06:01N 46°10' W 123°55'0 0.0
2018-Apr-15 05:30N 46°10' W 123°55'0 0.0
2018-Apr-15 05:00N 46°10' W 123°55'0 0.0
2018-Apr-15 04:30N 46°10' W 123°55'0 0.0
2018-Apr-15 04:00N 46°10' W 123°55'0 0.0
2018-Apr-15 03:31N 46°10' W 123°55'0 0.0
2018-Apr-15 03:01N 46°10' W 123°55'0 0.0
2018-Apr-15 02:31N 46°10' W 123°55'0 0.0
2018-Apr-15 02:00N 46°10' W 123°55'0 0.0
2018-Apr-15 01:31N 46°10' W 123°55'0 0.0
2018-Apr-15 01:01N 46°10' W 123°55'0 0.0
2018-Apr-15 00:30N 46°10' W 123°55'0 0.0
2018-Apr-15 00:01N 46°10' W 123°55'0 0.0
2018-Apr-14 23:30N 46°10' W 123°55'0 0.0
2018-Apr-14 23:01N 46°10' W 123°55'0 0.0
2018-Apr-14 22:30N 46°10' W 123°55'0 0.0
2018-Apr-14 22:01N 46°10' W 123°55'0 0.0
2018-Apr-14 21:30N 46°10' W 123°55'0 0.0
2018-Apr-14 21:00N 46°10' W 123°55'0 0.0
2018-Apr-14 20:30N 46°10' W 123°55'0 0.0
2018-Apr-14 20:00N 46°10' W 123°55'0 0.0
2018-Apr-14 19:30N 46°10' W 123°55'0 0.0
2018-Apr-14 19:01N 46°10' W 123°55'0 0.0
2018-Apr-14 18:30N 46°10' W 123°55'0 0.0
2018-Apr-14 18:00N 46°10' W 123°55'0 0.0
2018-Apr-14 17:30N 46°10' W 123°55'0 0.0
2018-Apr-14 17:00N 46°10' W 123°55'0 0.0
2018-Apr-14 16:30N 46°10' W 123°55'0 0.0
2018-Apr-14 16:00N 46°10' W 123°55'0 0.0
2018-Apr-14 15:31N 46°10' W 123°55'0 0.0
2018-Apr-14 15:00N 46°10' W 123°55'0 0.0
2018-Apr-14 14:30N 46°10' W 123°55'0 0.0
2018-Apr-14 14:00N 46°10' W 123°55'0 0.0
2018-Apr-14 13:31N 46°10' W 123°55'0 0.0
2018-Apr-14 12:59N 46°10' W 123°55'0 0.0
2018-Apr-14 12:31N 46°10' W 123°55'0 0.0
2018-Apr-14 12:00N 46°10' W 123°55'0 0.0
2018-Apr-14 11:30N 46°10' W 123°55'0 0.0
2018-Apr-14 11:01N 46°10' W 123°55'0 0.0
2018-Apr-14 10:05N 46°10' W 123°55'0 0.0
2018-Apr-14 10:00N 46°10' W 123°55'0 0.0
2018-Apr-14 09:30N 46°10' W 123°55'0 0.0
2018-Apr-14 08:55N 46°10' W 123°55'0 0.0
2018-Apr-14 08:30N 46°10' W 123°55'0 0.0
2018-Apr-14 08:00N 46°10' W 123°55'0 0.0
2018-Apr-14 07:30N 46°10' W 123°55'0 0.0
2018-Apr-14 07:01N 46°10' W 123°55'0 0.0
2018-Apr-14 06:30N 46°10' W 123°55'0 0.0
2018-Apr-14 06:00N 46°10' W 123°55'0 0.0
2018-Apr-14 05:30N 46°10' W 123°55'0 0.0
2018-Apr-14 04:56N 46°10' W 123°55'0 0.0
2018-Apr-14 04:24N 46°10' W 123°55'0 0.0
2018-Apr-14 04:00N 46°10' W 123°55'0 0.0
2018-Apr-14 03:31N 46°10' W 123°55'0 0.0
2018-Apr-14 02:56N 46°10' W 123°55'0 0.0
2018-Apr-14 02:30N 46°10' W 123°55'0 0.0
2018-Apr-14 02:01N 46°10' W 123°55'0 0.0
2018-Apr-14 01:30N 46°10' W 123°55'0 0.0
2018-Apr-14 00:57N 46°10' W 123°55'0 0.0
2018-Apr-14 00:31N 46°10' W 123°55'0 0.0
2018-Apr-14 00:00N 46°10' W 123°55'0 0.0
2018-Apr-13 23:27N 46°10' W 123°55'0 0.0
2018-Apr-13 22:57N 46°10' W 123°55'0 0.0
2018-Apr-13 22:30N 46°10' W 123°55'0 0.0
2018-Apr-13 22:00N 46°10' W 123°55'0 0.0
2018-Apr-13 21:30N 46°10' W 123°55'0 0.1
2018-Apr-13 21:00N 46°10' W 123°55'0 0.1
2018-Apr-13 20:30N 46°10' W 123°55'0 0.0
2018-Apr-13 20:01N 46°10' W 123°55'0 0.0
2018-Apr-13 19:31N 46°10' W 123°55'0 0.0
2018-Apr-13 19:01N 46°10' W 123°55'0 0.0
2018-Apr-13 18:16N 46°10' W 123°55'0 0.0
2018-Apr-13 18:00N 46°10' W 123°55'0 0.1
2018-Apr-13 17:30N 46°10' W 123°55'0 0.0
2018-Apr-13 17:00N 46°10' W 123°55'0 0.0
2018-Apr-13 16:30N 46°10' W 123°55'0 0.0
2018-Apr-13 16:00N 46°10' W 123°55'0 0.0
2018-Apr-13 15:30N 46°10' W 123°55'0 0.0
2018-Apr-13 15:01N 46°10' W 123°55'0 0.0
2018-Apr-13 14:31N 46°10' W 123°55'0 0.0
2018-Apr-13 14:00N 46°10' W 123°55'0 0.0
2018-Apr-13 13:31N 46°10' W 123°55'0 0.0
2018-Apr-13 13:00N 46°10' W 123°55'0 0.0
2018-Apr-13 12:31N 46°10' W 123°55'0 0.0
2018-Apr-13 12:00N 46°10' W 123°55'0 0.0
2018-Apr-13 11:30N 46°10' W 123°55'0 0.0
2018-Apr-13 11:01N 46°10' W 123°55'0 0.0
2018-Apr-13 09:59N 46°10' W 123°55'0 0.0
2018-Apr-13 09:29N 46°10' W 123°55'0 0.0
2018-Apr-13 09:01N 46°10' W 123°55'0 0.0
2018-Apr-13 08:31N 46°10' W 123°55'0 0.0
2018-Apr-13 08:00N 46°10' W 123°55'0 0.0
2018-Apr-13 07:31N 46°10' W 123°55'0 0.0
2018-Apr-13 07:00N 46°10' W 123°55'0 0.0
2018-Apr-13 06:30N 46°10' W 123°55'0 0.0
2018-Apr-13 06:01N 46°10' W 123°55'0 0.0
2018-Apr-13 05:31N 46°10' W 123°55'0 0.0
2018-Apr-13 05:01N 46°10' W 123°55'0 0.0
2018-Apr-13 04:31N 46°10' W 123°55'0 0.0
2018-Apr-13 03:49N 46°10' W 123°55'  

Dump ship's entire track history